sensor_id;sensor_type;location;lat;lon;timestamp;temperature;humidity
6662;DHT22;3367;48.714;8.994;2024-01-07T00:00:21;4.40;99.90
6662;DHT22;3367;48.714;8.994;2024-01-07T00:02:54;4.40;99.90
6662;DHT22;3367;48.714;8.994;2024-01-07T00:05:30;4.40;99.90
6662;DHT22;3367;48.714;8.994;2024-01-07T00:08:03;4.40;99.90
6662;DHT22;3367;48.714;8.994;2024-01-07T00:10:29;4.40;99.90
6662;DHT22;3367;48.714;8.994;2024-01-07T00:13:02;4.40;99.90
6662;DHT22;3367;48.714;8.994;2024-01-07T00:15:29;4.40;99.90
6662;DHT22;3367;48.714;8.994;2024-01-07T00:17:59;4.30;99.90
6662;DHT22;3367;48.714;8.994;2024-01-07T00:20:27;4.30;99.90
6662;DHT22;3367;48.714;8.994;2024-01-07T00:22:54;4.40;99.90
6662;DHT22;3367;48.714;8.994;2024-01-07T00:25:24;4.30;99.90
6662;DHT22;3367;48.714;8.994;2024-01-07T00:27:54;4.30;99.90
6662;DHT22;3367;48.714;8.994;2024-01-07T00:30:21;4.30;99.90
6662;DHT22;3367;48.714;8.994;2024-01-07T00:32:48;4.20;99.90
6662;DHT22;3367;48.714;8.994;2024-01-07T00:35:16;4.20;99.90
6662;DHT22;3367;48.714;8.994;2024-01-07T00:37:44;4.20;1.00
6662;DHT22;3367;48.714;8.994;2024-01-07T00:40:12;4.20;1.00
6662;DHT22;3367;48.714;8.994;2024-01-07T00:42:38;4.20;1.00
6662;DHT22;3367;48.714;8.994;2024-01-07T00:45:06;4.20;1.00
6662;DHT22;3367;48.714;8.994;2024-01-07T00:47:34;4.20;1.00
6662;DHT22;3367;48.714;8.994;2024-01-07T00:50:08;4.20;1.00
6662;DHT22;3367;48.714;8.994;2024-01-07T00:52:35;4.20;1.00
6662;DHT22;3367;48.714;8.994;2024-01-07T00:55:07;4.10;1.00
6662;DHT22;3367;48.714;8.994;2024-01-07T00:57:36;4.10;1.00
6662;DHT22;3367;48.714;8.994;2024-01-07T01:00:05;4.10;1.00
6662;DHT22;3367;48.714;8.994;2024-01-07T01:02:38;4.00;1.00
6662;DHT22;3367;48.714;8.994;2024-01-07T01:05:12;4.00;1.00
6662;DHT22;3367;48.714;8.994;2024-01-07T01:07:39;4.00;1.00
6662;DHT22;3367;48.714;8.994;2024-01-07T01:10:08;4.00;1.00
6662;DHT22;3367;48.714;8.994;2024-01-07T01:12:38;4.00;1.00
6662;DHT22;3367;48.714;8.994;2024-01-07T01:15:10;3.90;1.00
6662;DHT22;3367;48.714;8.994;2024-01-07T01:17:37;3.90;38.10
6662;DHT22;3367;48.714;8.994;2024-01-07T01:20:07;4.00;99.90
6662;DHT22;3367;48.714;8.994;2024-01-07T01:22:34;4.00;99.90
6662;DHT22;3367;48.714;8.994;2024-01-07T01:25:01;4.00;99.90
6662;DHT22;3367;48.714;8.994;2024-01-07T01:27:30;3.90;99.90
6662;DHT22;3367;48.714;8.994;2024-01-07T01:29:59;3.90;99.90
6662;DHT22;3367;48.714;8.994;2024-01-07T01:32:25;3.90;99.90
6662;DHT22;3367;48.714;8.994;2024-01-07T01:34:55;3.90;99.90
6662;DHT22;3367;48.714;8.994;2024-01-07T01:37:22;3.90;99.90
6662;DHT22;3367;48.714;8.994;2024-01-07T01:39:49;3.90;99.90
6662;DHT22;3367;48.714;8.994;2024-01-07T01:42:15;3.90;99.90
6662;DHT22;3367;48.714;8.994;2024-01-07T01:44:44;3.90;99.90
6662;DHT22;3367;48.714;8.994;2024-01-07T01:47:10;3.90;99.90
6662;DHT22;3367;48.714;8.994;2024-01-07T01:49:38;3.90;99.90
6662;DHT22;3367;48.714;8.994;2024-01-07T01:52:05;3.80;1.00
6662;DHT22;3367;48.714;8.994;2024-01-07T01:54:35;3.80;1.00
6662;DHT22;3367;48.714;8.994;2024-01-07T01:57:02;4.00;1.00
6662;DHT22;3367;48.714;8.994;2024-01-07T01:59:31;3.80;1.00
6662;DHT22;3367;48.714;8.994;2024-01-07T02:02:01;3.90;1.00
6662;DHT22;3367;48.714;8.994;2024-01-07T02:04:28;3.80;1.00
6662;DHT22;3367;48.714;8.994;2024-01-07T02:06:54;3.80;1.00
6662;DHT22;3367;48.714;8.994;2024-01-07T02:09:26;3.80;1.00
6662;DHT22;3367;48.714;8.994;2024-01-07T02:12:03;3.80;1.00
6662;DHT22;3367;48.714;8.994;2024-01-07T02:14:33;3.80;1.00
6662;DHT22;3367;48.714;8.994;2024-01-07T02:17:02;3.80;1.00
6662;DHT22;3367;48.714;8.994;2024-01-07T02:19:31;3.80;1.00
6662;DHT22;3367;48.714;8.994;2024-01-07T02:21:58;3.70;1.00
6662;DHT22;3367;48.714;8.994;2024-01-07T02:24:29;3.70;1.00
6662;DHT22;3367;48.714;8.994;2024-01-07T02:27:03;3.70;1.00
6662;DHT22;3367;48.714;8.994;2024-01-07T02:29:30;3.80;1.00
6662;DHT22;3367;48.714;8.994;2024-01-07T02:32:03;3.80;1.00
6662;DHT22;3367;48.714;8.994;2024-01-07T02:34:30;3.70;1.00
6662;DHT22;3367;48.714;8.994;2024-01-07T02:36:56;3.80;1.00
6662;DHT22;3367;48.714;8.994;2024-01-07T02:39:27;3.90;1.00
6662;DHT22;3367;48.714;8.994;2024-01-07T02:41:54;3.90;1.00
6662;DHT22;3367;48.714;8.994;2024-01-07T02:44:23;3.80;1.00
6662;DHT22;3367;48.714;8.994;2024-01-07T02:46:50;3.80;1.00
6662;DHT22;3367;48.714;8.994;2024-01-07T02:49:17;3.70;1.00
6662;DHT22;3367;48.714;8.994;2024-01-07T02:51:46;3.70;1.00
6662;DHT22;3367;48.714;8.994;2024-01-07T02:54:14;3.70;1.00
6662;DHT22;3367;48.714;8.994;2024-01-07T02:56:42;3.70;1.00
6662;DHT22;3367;48.714;8.994;2024-01-07T02:59:12;3.70;1.00
6662;DHT22;3367;48.714;8.994;2024-01-07T03:01:42;3.70;1.00
6662;DHT22;3367;48.714;8.994;2024-01-07T03:04:10;3.70;1.00
6662;DHT22;3367;48.714;8.994;2024-01-07T03:06:40;3.70;1.00
6662;DHT22;3367;48.714;8.994;2024-01-07T03:09:09;3.80;1.00
6662;DHT22;3367;48.714;8.994;2024-01-07T03:11:39;3.70;1.00
6662;DHT22;3367;48.714;8.994;2024-01-07T03:14:14;3.70;1.00
6662;DHT22;3367;48.714;8.994;2024-01-07T03:16:45;3.80;1.00
6662;DHT22;3367;48.714;8.994;2024-01-07T03:19:11;3.80;1.00
6662;DHT22;3367;48.714;8.994;2024-01-07T03:21:41;3.70;1.00
6662;DHT22;3367;48.714;8.994;2024-01-07T03:24:10;3.70;1.00
6662;DHT22;3367;48.714;8.994;2024-01-07T03:26:37;3.70;1.00
6662;DHT22;3367;48.714;8.994;2024-01-07T03:29:04;3.80;1.00
6662;DHT22;3367;48.714;8.994;2024-01-07T03:31:32;3.80;1.00
6662;DHT22;3367;48.714;8.994;2024-01-07T03:33:58;3.80;1.00
6662;DHT22;3367;48.714;8.994;2024-01-07T03:36:25;3.80;1.00
6662;DHT22;3367;48.714;8.994;2024-01-07T03:38:57;3.80;1.00
6662;DHT22;3367;48.714;8.994;2024-01-07T03:41:26;3.80;1.00
6662;DHT22;3367;48.714;8.994;2024-01-07T03:43:53;3.80;1.00
6662;DHT22;3367;48.714;8.994;2024-01-07T03:46:20;3.80;1.00
6662;DHT22;3367;48.714;8.994;2024-01-07T03:48:48;3.80;1.00
6662;DHT22;3367;48.714;8.994;2024-01-07T03:51:18;3.80;1.00
6662;DHT22;3367;48.714;8.994;2024-01-07T03:53:44;3.80;1.00
6662;DHT22;3367;48.714;8.994;2024-01-07T03:56:11;3.80;1.00
6662;DHT22;3367;48.714;8.994;2024-01-07T03:58:43;3.80;1.00
6662;DHT22;3367;48.714;8.994;2024-01-07T04:01:17;3.80;1.00
6662;DHT22;3367;48.714;8.994;2024-01-07T04:03:48;3.80;1.00
6662;DHT22;3367;48.714;8.994;2024-01-07T04:06:14;3.80;1.00
6662;DHT22;3367;48.714;8.994;2024-01-07T04:08:41;3.80;1.00
6662;DHT22;3367;48.714;8.994;2024-01-07T04:11:08;3.80;1.00
6662;DHT22;3367;48.714;8.994;2024-01-07T04:13:40;3.80;1.00
6662;DHT22;3367;48.714;8.994;2024-01-07T04:16:15;3.80;1.00
6662;DHT22;3367;48.714;8.994;2024-01-07T04:18:42;3.80;1.00
6662;DHT22;3367;48.714;8.994;2024-01-07T04:21:13;3.80;1.00
6662;DHT22;3367;48.714;8.994;2024-01-07T04:23:43;3.80;1.00
6662;DHT22;3367;48.714;8.994;2024-01-07T04:26:12;3.80;1.00
6662;DHT22;3367;48.714;8.994;2024-01-07T04:28:42;3.80;1.00
6662;DHT22;3367;48.714;8.994;2024-01-07T04:31:15;3.80;1.00
6662;DHT22;3367;48.714;8.994;2024-01-07T04:33:42;3.80;99.90
6662;DHT22;3367;48.714;8.994;2024-01-07T04:36:10;3.70;99.90
6662;DHT22;3367;48.714;8.994;2024-01-07T04:38:36;3.70;99.90
6662;DHT22;3367;48.714;8.994;2024-01-07T04:41:03;3.70;99.90
6662;DHT22;3367;48.714;8.994;2024-01-07T04:43:33;3.70;99.90
6662;DHT22;3367;48.714;8.994;2024-01-07T04:45:59;3.70;23.90
6662;DHT22;3367;48.714;8.994;2024-01-07T04:48:29;3.70;12.20
6662;DHT22;3367;48.714;8.994;2024-01-07T04:50:55;3.60;1.00
6662;DHT22;3367;48.714;8.994;2024-01-07T04:53:26;3.60;1.00
6662;DHT22;3367;48.714;8.994;2024-01-07T04:55:56;3.70;1.00
6662;DHT22;3367;48.714;8.994;2024-01-07T04:58:22;3.70;1.00
6662;DHT22;3367;48.714;8.994;2024-01-07T05:00:49;3.70;1.00
6662;DHT22;3367;48.714;8.994;2024-01-07T05:03:19;3.60;1.00
6662;DHT22;3367;48.714;8.994;2024-01-07T05:05:48;3.60;1.00
6662;DHT22;3367;48.714;8.994;2024-01-07T05:08:15;3.70;1.00
6662;DHT22;3367;48.714;8.994;2024-01-07T05:10:43;3.60;1.00
6662;DHT22;3367;48.714;8.994;2024-01-07T05:13:13;3.70;1.00
6662;DHT22;3367;48.714;8.994;2024-01-07T05:15:39;3.60;1.00
6662;DHT22;3367;48.714;8.994;2024-01-07T05:18:12;3.60;1.00
6662;DHT22;3367;48.714;8.994;2024-01-07T05:20:39;3.70;1.00
6662;DHT22;3367;48.714;8.994;2024-01-07T05:23:08;3.70;1.00
6662;DHT22;3367;48.714;8.994;2024-01-07T05:25:45;3.70;1.00
6662;DHT22;3367;48.714;8.994;2024-01-07T05:28:24;3.60;1.00
6662;DHT22;3367;48.714;8.994;2024-01-07T05:30:53;3.70;1.00
6662;DHT22;3367;48.714;8.994;2024-01-07T05:33:23;3.70;1.00
6662;DHT22;3367;48.714;8.994;2024-01-07T05:35:49;3.70;1.00
6662;DHT22;3367;48.714;8.994;2024-01-07T05:38:16;3.60;1.00
6662;DHT22;3367;48.714;8.994;2024-01-07T05:40:47;3.60;1.00
6662;DHT22;3367;48.714;8.994;2024-01-07T05:43:16;3.60;1.00
6662;DHT22;3367;48.714;8.994;2024-01-07T05:45:46;3.60;1.00
6662;DHT22;3367;48.714;8.994;2024-01-07T05:48:13;3.60;1.00
6662;DHT22;3367;48.714;8.994;2024-01-07T05:50:45;3.60;1.00
6662;DHT22;3367;48.714;8.994;2024-01-07T05:53:12;3.60;1.00
6662;DHT22;3367;48.714;8.994;2024-01-07T05:55:41;3.60;1.00
6662;DHT22;3367;48.714;8.994;2024-01-07T05:58:15;3.60;1.00
6662;DHT22;3367;48.714;8.994;2024-01-07T06:00:42;3.50;1.00
6662;DHT22;3367;48.714;8.994;2024-01-07T06:03:11;3.60;1.00
6662;DHT22;3367;48.714;8.994;2024-01-07T06:05:38;3.60;1.00
6662;DHT22;3367;48.714;8.994;2024-01-07T06:08:08;3.50;1.00
6662;DHT22;3367;48.714;8.994;2024-01-07T06:10:35;3.50;1.00
6662;DHT22;3367;48.714;8.994;2024-01-07T06:13:02;3.70;1.00
6662;DHT22;3367;48.714;8.994;2024-01-07T06:15:33;3.50;1.00
6662;DHT22;3367;48.714;8.994;2024-01-07T06:18:00;3.50;1.00
6662;DHT22;3367;48.714;8.994;2024-01-07T06:20:26;3.50;1.00
6662;DHT22;3367;48.714;8.994;2024-01-07T06:22:53;3.50;1.00
6662;DHT22;3367;48.714;8.994;2024-01-07T06:25:26;3.50;1.00
6662;DHT22;3367;48.714;8.994;2024-01-07T06:27:53;3.50;1.00
6662;DHT22;3367;48.714;8.994;2024-01-07T06:30:19;3.40;1.00
6662;DHT22;3367;48.714;8.994;2024-01-07T06:32:47;3.40;1.00
6662;DHT22;3367;48.714;8.994;2024-01-07T06:35:14;3.40;1.00
6662;DHT22;3367;48.714;8.994;2024-01-07T06:37:41;3.40;1.00
6662;DHT22;3367;48.714;8.994;2024-01-07T06:40:15;3.40;1.00
6662;DHT22;3367;48.714;8.994;2024-01-07T06:42:45;3.40;1.00
6662;DHT22;3367;48.714;8.994;2024-01-07T06:45:14;3.40;1.00
6662;DHT22;3367;48.714;8.994;2024-01-07T06:47:44;3.40;1.00
6662;DHT22;3367;48.714;8.994;2024-01-07T06:50:13;3.40;1.00
6662;DHT22;3367;48.714;8.994;2024-01-07T06:52:39;3.30;1.00
6662;DHT22;3367;48.714;8.994;2024-01-07T06:55:07;3.30;1.00
6662;DHT22;3367;48.714;8.994;2024-01-07T06:57:33;3.30;1.00
6662;DHT22;3367;48.714;8.994;2024-01-07T07:00:00;3.30;99.90
6662;DHT22;3367;48.714;8.994;2024-01-07T07:02:28;3.30;99.90
6662;DHT22;3367;48.714;8.994;2024-01-07T07:05:04;3.30;99.90
6662;DHT22;3367;48.714;8.994;2024-01-07T07:07:36;3.30;99.90
6662;DHT22;3367;48.714;8.994;2024-01-07T07:10:03;3.30;99.90
6662;DHT22;3367;48.714;8.994;2024-01-07T07:12:30;3.30;99.90
6662;DHT22;3367;48.714;8.994;2024-01-07T07:14:57;3.20;99.90
6662;DHT22;3367;48.714;8.994;2024-01-07T07:17:27;3.20;99.90
6662;DHT22;3367;48.714;8.994;2024-01-07T07:19:53;3.20;99.90
6662;DHT22;3367;48.714;8.994;2024-01-07T07:22:20;3.20;27.70
6662;DHT22;3367;48.714;8.994;2024-01-07T07:24:48;3.20;85.50
6662;DHT22;3367;48.714;8.994;2024-01-07T07:27:15;3.20;97.30
6662;DHT22;3367;48.714;8.994;2024-01-07T07:29:41;3.10;1.00
6662;DHT22;3367;48.714;8.994;2024-01-07T07:32:08;3.20;1.00
6662;DHT22;3367;48.714;8.994;2024-01-07T07:34:35;3.10;1.00
6662;DHT22;3367;48.714;8.994;2024-01-07T07:37:02;3.10;1.00
6662;DHT22;3367;48.714;8.994;2024-01-07T07:39:29;3.10;1.00
6662;DHT22;3367;48.714;8.994;2024-01-07T07:42:00;3.10;1.00
6662;DHT22;3367;48.714;8.994;2024-01-07T07:44:26;3.10;1.00
6662;DHT22;3367;48.714;8.994;2024-01-07T07:46:53;3.10;1.00
6662;DHT22;3367;48.714;8.994;2024-01-07T07:49:23;3.00;99.90
6662;DHT22;3367;48.714;8.994;2024-01-07T07:51:49;3.00;1.00
6662;DHT22;3367;48.714;8.994;2024-01-07T07:54:25;3.00;1.00
6662;DHT22;3367;48.714;8.994;2024-01-07T07:56:51;3.10;1.00
6662;DHT22;3367;48.714;8.994;2024-01-07T07:59:22;3.00;1.00
6662;DHT22;3367;48.714;8.994;2024-01-07T08:01:55;3.00;99.90
6662;DHT22;3367;48.714;8.994;2024-01-07T08:04:21;2.90;99.90
6662;DHT22;3367;48.714;8.994;2024-01-07T08:06:48;2.90;99.90
6662;DHT22;3367;48.714;8.994;2024-01-07T08:09:15;2.80;99.90
6662;DHT22;3367;48.714;8.994;2024-01-07T08:11:41;2.80;99.90
6662;DHT22;3367;48.714;8.994;2024-01-07T08:14:17;2.80;1.00
6662;DHT22;3367;48.714;8.994;2024-01-07T08:16:45;2.80;99.90
6662;DHT22;3367;48.714;8.994;2024-01-07T08:19:15;2.80;99.90
6662;DHT22;3367;48.714;8.994;2024-01-07T08:21:42;2.80;99.90
6662;DHT22;3367;48.714;8.994;2024-01-07T08:24:11;2.80;99.90
6662;DHT22;3367;48.714;8.994;2024-01-07T08:26:41;2.70;99.90
6662;DHT22;3367;48.714;8.994;2024-01-07T08:29:11;2.80;99.90
6662;DHT22;3367;48.714;8.994;2024-01-07T08:31:44;2.80;99.90
6662;DHT22;3367;48.714;8.994;2024-01-07T08:34:17;2.70;99.90
6662;DHT22;3367;48.714;8.994;2024-01-07T08:36:45;2.80;99.90
6662;DHT22;3367;48.714;8.994;2024-01-07T08:39:18;2.80;99.90
6662;DHT22;3367;48.714;8.994;2024-01-07T08:41:44;2.80;99.90
6662;DHT22;3367;48.714;8.994;2024-01-07T08:44:11;2.80;73.00
6662;DHT22;3367;48.714;8.994;2024-01-07T08:46:41;2.80;90.60
6662;DHT22;3367;48.714;8.994;2024-01-07T08:49:09;2.80;1.00
6662;DHT22;3367;48.714;8.994;2024-01-07T08:51:35;2.80;83.00
6662;DHT22;3367;48.714;8.994;2024-01-07T08:54:03;2.80;1.00
6662;DHT22;3367;48.714;8.994;2024-01-07T08:56:30;2.80;1.00
6662;DHT22;3367;48.714;8.994;2024-01-07T08:58:56;2.80;1.00
6662;DHT22;3367;48.714;8.994;2024-01-07T09:01:24;2.80;1.00
6662;DHT22;3367;48.714;8.994;2024-01-07T09:03:51;2.70;1.00
6662;DHT22;3367;48.714;8.994;2024-01-07T09:06:19;2.70;1.00
6662;DHT22;3367;48.714;8.994;2024-01-07T09:08:45;2.70;1.00
6662;DHT22;3367;48.714;8.994;2024-01-07T09:11:12;2.70;1.00
6662;DHT22;3367;48.714;8.994;2024-01-07T09:13:39;2.70;1.00
6662;DHT22;3367;48.714;8.994;2024-01-07T09:16:06;2.70;1.00
6662;DHT22;3367;48.714;8.994;2024-01-07T09:18:34;2.70;1.00
6662;DHT22;3367;48.714;8.994;2024-01-07T09:21:01;2.70;1.00
6662;DHT22;3367;48.714;8.994;2024-01-07T09:23:29;2.70;1.00
6662;DHT22;3367;48.714;8.994;2024-01-07T09:25:56;2.70;1.00
6662;DHT22;3367;48.714;8.994;2024-01-07T09:28:23;2.70;1.00
6662;DHT22;3367;48.714;8.994;2024-01-07T09:30:49;2.70;1.00
6662;DHT22;3367;48.714;8.994;2024-01-07T09:33:16;2.70;99.90
6662;DHT22;3367;48.714;8.994;2024-01-07T09:35:43;2.70;99.90
6662;DHT22;3367;48.714;8.994;2024-01-07T09:38:10;2.80;1.00
6662;DHT22;3367;48.714;8.994;2024-01-07T09:40:40;2.80;99.90
6662;DHT22;3367;48.714;8.994;2024-01-07T09:43:07;2.80;99.90
6662;DHT22;3367;48.714;8.994;2024-01-07T09:45:36;2.80;99.90
6662;DHT22;3367;48.714;8.994;2024-01-07T09:48:05;2.80;99.90
6662;DHT22;3367;48.714;8.994;2024-01-07T09:50:32;2.80;99.90
6662;DHT22;3367;48.714;8.994;2024-01-07T09:53:00;2.80;1.00
6662;DHT22;3367;48.714;8.994;2024-01-07T09:55:33;2.80;1.00
6662;DHT22;3367;48.714;8.994;2024-01-07T09:58:01;2.70;99.90
6662;DHT22;3367;48.714;8.994;2024-01-07T10:00:28;2.70;1.00
6662;DHT22;3367;48.714;8.994;2024-01-07T10:02:55;2.70;1.00
6662;DHT22;3367;48.714;8.994;2024-01-07T10:05:22;2.70;99.90
6662;DHT22;3367;48.714;8.994;2024-01-07T10:07:49;2.70;1.00
6662;DHT22;3367;48.714;8.994;2024-01-07T10:10:16;2.60;99.90
6662;DHT22;3367;48.714;8.994;2024-01-07T10:12:44;2.60;99.90
6662;DHT22;3367;48.714;8.994;2024-01-07T10:15:13;2.60;1.00
6662;DHT22;3367;48.714;8.994;2024-01-07T10:17:40;2.60;1.00
6662;DHT22;3367;48.714;8.994;2024-01-07T10:20:08;2.60;1.00
6662;DHT22;3367;48.714;8.994;2024-01-07T10:22:36;2.60;1.00
6662;DHT22;3367;48.714;8.994;2024-01-07T10:25:03;2.60;1.00
6662;DHT22;3367;48.714;8.994;2024-01-07T10:27:33;2.70;1.00
6662;DHT22;3367;48.714;8.994;2024-01-07T10:30:01;2.60;1.00
6662;DHT22;3367;48.714;8.994;2024-01-07T10:32:29;2.60;1.00
6662;DHT22;3367;48.714;8.994;2024-01-07T10:35:01;2.60;1.00
6662;DHT22;3367;48.714;8.994;2024-01-07T10:37:28;2.50;1.00
6662;DHT22;3367;48.714;8.994;2024-01-07T10:39:58;2.50;1.00
6662;DHT22;3367;48.714;8.994;2024-01-07T10:42:29;2.50;1.00
6662;DHT22;3367;48.714;8.994;2024-01-07T10:44:56;2.60;1.00
6662;DHT22;3367;48.714;8.994;2024-01-07T10:47:23;2.50;1.00
6662;DHT22;3367;48.714;8.994;2024-01-07T10:49:54;2.50;99.90
6662;DHT22;3367;48.714;8.994;2024-01-07T10:52:27;2.30;1.00
6662;DHT22;3367;48.714;8.994;2024-01-07T10:55:03;2.30;1.00
6662;DHT22;3367;48.714;8.994;2024-01-07T10:57:36;2.20;1.00
6662;DHT22;3367;48.714;8.994;2024-01-07T11:00:15;2.20;1.00
6662;DHT22;3367;48.714;8.994;2024-01-07T11:02:52;2.20;1.00
6662;DHT22;3367;48.714;8.994;2024-01-07T11:05:27;2.20;99.90
6662;DHT22;3367;48.714;8.994;2024-01-07T11:08:01;2.20;99.90
6662;DHT22;3367;48.714;8.994;2024-01-07T11:10:37;2.20;1.00
6662;DHT22;3367;48.714;8.994;2024-01-07T11:13:05;2.20;1.00
6662;DHT22;3367;48.714;8.994;2024-01-07T11:15:54;2.10;1.00
6662;DHT22;3367;48.714;8.994;2024-01-07T11:18:21;2.10;1.00
6662;DHT22;3367;48.714;8.994;2024-01-07T11:20:50;2.20;1.00
6662;DHT22;3367;48.714;8.994;2024-01-07T11:23:26;2.20;1.00
6662;DHT22;3367;48.714;8.994;2024-01-07T11:25:57;2.20;1.00
6662;DHT22;3367;48.714;8.994;2024-01-07T11:28:46;2.20;1.00
6662;DHT22;3367;48.714;8.994;2024-01-07T11:31:13;2.20;99.90
6662;DHT22;3367;48.714;8.994;2024-01-07T11:33:42;2.20;99.90
6662;DHT22;3367;48.714;8.994;2024-01-07T11:36:12;2.20;99.90
6662;DHT22;3367;48.714;8.994;2024-01-07T11:38:43;2.20;99.90
6662;DHT22;3367;48.714;8.994;2024-01-07T11:41:11;2.20;99.90
6662;DHT22;3367;48.714;8.994;2024-01-07T11:43:58;2.20;99.90
6662;DHT22;3367;48.714;8.994;2024-01-07T11:46:25;2.20;99.90
6662;DHT22;3367;48.714;8.994;2024-01-07T11:48:53;2.20;99.90
6662;DHT22;3367;48.714;8.994;2024-01-07T11:51:25;2.20;99.90
6662;DHT22;3367;48.714;8.994;2024-01-07T11:53:52;2.20;99.90
6662;DHT22;3367;48.714;8.994;2024-01-07T11:56:19;2.10;99.90
6662;DHT22;3367;48.714;8.994;2024-01-07T11:58:45;2.10;99.90
6662;DHT22;3367;48.714;8.994;2024-01-07T12:01:14;2.10;99.90
6662;DHT22;3367;48.714;8.994;2024-01-07T12:03:43;2.10;99.90
6662;DHT22;3367;48.714;8.994;2024-01-07T12:06:10;2.00;99.90
6662;DHT22;3367;48.714;8.994;2024-01-07T12:08:40;2.00;99.90
6662;DHT22;3367;48.714;8.994;2024-01-07T12:11:08;2.00;99.90
6662;DHT22;3367;48.714;8.994;2024-01-07T12:13:36;2.00;99.90
6662;DHT22;3367;48.714;8.994;2024-01-07T12:16:04;2.00;99.90
6662;DHT22;3367;48.714;8.994;2024-01-07T12:18:31;2.00;99.90
6662;DHT22;3367;48.714;8.994;2024-01-07T12:20:58;2.00;99.90
6662;DHT22;3367;48.714;8.994;2024-01-07T12:23:26;2.00;99.90
6662;DHT22;3367;48.714;8.994;2024-01-07T12:25:54;2.00;1.00
6662;DHT22;3367;48.714;8.994;2024-01-07T12:28:22;2.00;1.00
6662;DHT22;3367;48.714;8.994;2024-01-07T12:30:52;1.90;99.90
6662;DHT22;3367;48.714;8.994;2024-01-07T12:33:19;1.90;1.00
6662;DHT22;3367;48.714;8.994;2024-01-07T12:35:52;1.80;1.00
6662;DHT22;3367;48.714;8.994;2024-01-07T12:38:24;1.80;1.00
6662;DHT22;3367;48.714;8.994;2024-01-07T12:40:51;1.60;1.00
6662;DHT22;3367;48.714;8.994;2024-01-07T12:43:19;1.60;1.00
6662;DHT22;3367;48.714;8.994;2024-01-07T12:45:50;1.60;1.00
6662;DHT22;3367;48.714;8.994;2024-01-07T12:48:17;1.60;1.00
6662;DHT22;3367;48.714;8.994;2024-01-07T12:50:43;1.60;1.00
6662;DHT22;3367;48.714;8.994;2024-01-07T12:53:10;1.60;1.00
6662;DHT22;3367;48.714;8.994;2024-01-07T12:55:37;1.60;1.00
6662;DHT22;3367;48.714;8.994;2024-01-07T12:58:03;1.50;1.00
6662;DHT22;3367;48.714;8.994;2024-01-07T13:00:31;1.50;1.00
6662;DHT22;3367;48.714;8.994;2024-01-07T13:02:59;1.50;1.00
6662;DHT22;3367;48.714;8.994;2024-01-07T13:05:26;1.60;1.00
6662;DHT22;3367;48.714;8.994;2024-01-07T13:07:56;1.50;1.00
6662;DHT22;3367;48.714;8.994;2024-01-07T13:10:28;1.50;1.00
6662;DHT22;3367;48.714;8.994;2024-01-07T13:12:58;1.50;1.00
6662;DHT22;3367;48.714;8.994;2024-01-07T13:15:27;1.50;1.00
6662;DHT22;3367;48.714;8.994;2024-01-07T13:17:58;1.40;1.00
6662;DHT22;3367;48.714;8.994;2024-01-07T13:20:25;1.40;1.00
6662;DHT22;3367;48.714;8.994;2024-01-07T13:22:51;1.40;1.00
6662;DHT22;3367;48.714;8.994;2024-01-07T13:25:18;1.40;1.00
6662;DHT22;3367;48.714;8.994;2024-01-07T13:27:45;1.40;1.00
6662;DHT22;3367;48.714;8.994;2024-01-07T13:30:12;1.30;1.00
6662;DHT22;3367;48.714;8.994;2024-01-07T13:32:38;1.30;1.00
6662;DHT22;3367;48.714;8.994;2024-01-07T13:35:07;1.40;1.00
6662;DHT22;3367;48.714;8.994;2024-01-07T13:37:35;1.30;1.00
6662;DHT22;3367;48.714;8.994;2024-01-07T13:40:03;1.20;1.00
6662;DHT22;3367;48.714;8.994;2024-01-07T13:42:30;1.20;1.00
6662;DHT22;3367;48.714;8.994;2024-01-07T13:44:56;1.10;1.00
6662;DHT22;3367;48.714;8.994;2024-01-07T13:47:23;1.10;1.00
6662;DHT22;3367;48.714;8.994;2024-01-07T13:49:50;1.10;1.00
6662;DHT22;3367;48.714;8.994;2024-01-07T13:52:18;1.10;1.00
6662;DHT22;3367;48.714;8.994;2024-01-07T13:54:44;1.10;1.00
6662;DHT22;3367;48.714;8.994;2024-01-07T13:57:11;1.00;1.00
6662;DHT22;3367;48.714;8.994;2024-01-07T13:59:39;1.00;1.00
6662;DHT22;3367;48.714;8.994;2024-01-07T14:02:06;0.90;1.00
6662;DHT22;3367;48.714;8.994;2024-01-07T14:04:33;0.90;1.00
6662;DHT22;3367;48.714;8.994;2024-01-07T14:06:59;1.00;1.00
6662;DHT22;3367;48.714;8.994;2024-01-07T14:09:27;1.00;1.00
6662;DHT22;3367;48.714;8.994;2024-01-07T14:11:56;0.90;1.00
6662;DHT22;3367;48.714;8.994;2024-01-07T14:14:23;1.00;1.00
6662;DHT22;3367;48.714;8.994;2024-01-07T14:16:50;0.90;1.00
6662;DHT22;3367;48.714;8.994;2024-01-07T14:19:17;0.90;1.00
6662;DHT22;3367;48.714;8.994;2024-01-07T14:21:44;0.80;1.00
6662;DHT22;3367;48.714;8.994;2024-01-07T14:24:10;0.80;1.00
6662;DHT22;3367;48.714;8.994;2024-01-07T14:26:38;0.80;1.00
6662;DHT22;3367;48.714;8.994;2024-01-07T14:29:05;0.80;1.00
6662;DHT22;3367;48.714;8.994;2024-01-07T14:31:32;0.70;1.00
6662;DHT22;3367;48.714;8.994;2024-01-07T14:33:59;0.70;1.00
6662;DHT22;3367;48.714;8.994;2024-01-07T14:36:25;0.80;1.00
6662;DHT22;3367;48.714;8.994;2024-01-07T14:38:52;0.80;1.00
6662;DHT22;3367;48.714;8.994;2024-01-07T14:41:19;0.80;1.00
6662;DHT22;3367;48.714;8.994;2024-01-07T14:43:47;0.80;1.00
6662;DHT22;3367;48.714;8.994;2024-01-07T14:46:13;0.70;1.00
6662;DHT22;3367;48.714;8.994;2024-01-07T14:48:40;0.70;1.00
6662;DHT22;3367;48.714;8.994;2024-01-07T14:51:07;0.70;1.00
6662;DHT22;3367;48.714;8.994;2024-01-07T14:53:33;0.70;1.00
6662;DHT22;3367;48.714;8.994;2024-01-07T14:56:00;0.70;1.00
6662;DHT22;3367;48.714;8.994;2024-01-07T14:58:27;0.70;1.00
6662;DHT22;3367;48.714;8.994;2024-01-07T15:00:55;0.70;1.00
6662;DHT22;3367;48.714;8.994;2024-01-07T15:03:24;0.70;1.00
6662;DHT22;3367;48.714;8.994;2024-01-07T15:05:50;0.70;1.00
6662;DHT22;3367;48.714;8.994;2024-01-07T15:08:17;0.70;1.00
6662;DHT22;3367;48.714;8.994;2024-01-07T15:10:44;0.70;1.00
6662;DHT22;3367;48.714;8.994;2024-01-07T15:13:11;0.70;1.00
6662;DHT22;3367;48.714;8.994;2024-01-07T15:15:37;0.70;1.00
6662;DHT22;3367;48.714;8.994;2024-01-07T15:18:05;0.50;1.00
6662;DHT22;3367;48.714;8.994;2024-01-07T15:20:32;0.50;1.00
6662;DHT22;3367;48.714;8.994;2024-01-07T15:22:59;0.50;1.00
6662;DHT22;3367;48.714;8.994;2024-01-07T15:25:25;0.50;1.00
6662;DHT22;3367;48.714;8.994;2024-01-07T15:27:52;0.50;23.30
6662;DHT22;3367;48.714;8.994;2024-01-07T15:30:19;0.40;6.90
6662;DHT22;3367;48.714;8.994;2024-01-07T15:32:45;0.40;99.90
6662;DHT22;3367;48.714;8.994;2024-01-07T15:35:14;0.40;99.90
6662;DHT22;3367;48.714;8.994;2024-01-07T15:37:40;0.30;99.90
6662;DHT22;3367;48.714;8.994;2024-01-07T15:40:08;0.30;99.90
6662;DHT22;3367;48.714;8.994;2024-01-07T15:42:34;0.20;99.90
6662;DHT22;3367;48.714;8.994;2024-01-07T15:45:01;0.20;99.90
6662;DHT22;3367;48.714;8.994;2024-01-07T15:47:28;0.10;99.90
6662;DHT22;3367;48.714;8.994;2024-01-07T15:49:58;0.20;99.90
6662;DHT22;3367;48.714;8.994;2024-01-07T15:52:27;0.10;99.90
6662;DHT22;3367;48.714;8.994;2024-01-07T15:54:54;0.10;99.90
6662;DHT22;3367;48.714;8.994;2024-01-07T15:57:21;0.00;99.90
6662;DHT22;3367;48.714;8.994;2024-01-07T15:59:47;0.00;1.00
6662;DHT22;3367;48.714;8.994;2024-01-07T16:02:14;0.00;1.00
6662;DHT22;3367;48.714;8.994;2024-01-07T16:04:41;0.10;1.00
6662;DHT22;3367;48.714;8.994;2024-01-07T16:07:08;0.10;1.00
6662;DHT22;3367;48.714;8.994;2024-01-07T16:09:36;0.10;1.00
6662;DHT22;3367;48.714;8.994;2024-01-07T16:12:03;0.20;1.00
6662;DHT22;3367;48.714;8.994;2024-01-07T16:14:30;0.00;1.00
6662;DHT22;3367;48.714;8.994;2024-01-07T16:16:59;0.00;1.00
6662;DHT22;3367;48.714;8.994;2024-01-07T16:19:26;-0.10;1.00
6662;DHT22;3367;48.714;8.994;2024-01-07T16:21:53;-0.10;1.00
6662;DHT22;3367;48.714;8.994;2024-01-07T16:24:20;-0.10;1.00
6662;DHT22;3367;48.714;8.994;2024-01-07T16:26:48;-0.10;1.00
6662;DHT22;3367;48.714;8.994;2024-01-07T16:29:14;-0.10;1.00
6662;DHT22;3367;48.714;8.994;2024-01-07T16:31:41;-0.20;1.00
6662;DHT22;3367;48.714;8.994;2024-01-07T16:34:08;-0.20;1.00
6662;DHT22;3367;48.714;8.994;2024-01-07T16:36:34;-0.30;1.00